Time;durP1;ratioP1;P1;durP2;ratioP2;P2;SDS_P1;SDS_P2;PMS_P1;PMS_P2;Temp;Humidity;BMP_temperature;BMP_pressure;BME280_temperature;BME280_humidity;BME280_pressure;Samples;Min_cycle;Max_cycle;Signal;HPM_P1;HPM_P2
2022/01/25 00:26:03;;;;;;;;;;;;;;;;;;4994436;28;20378;-48
2022/01/25 00:31:09;;;;;;;;;;;;;;;;;;4994167;28;19953;-49
2022/01/25 00:33:35;;;;;;;;;;;;;;;;;;4994160;28;19924;-48
2022/01/25 00:36:02;;;;;;;;;;;;;;;;;;4994422;28;19914;-48
2022/01/25 00:38:27;;;;;;;;;;;;;;;;;;4993831;28;19913;-49
2022/01/25 00:40:53;;;;;;;;;;;;;;;;;;4993528;28;19921;-52
2022/01/25 00:43:21;;;;;;;;;;;;;;;;;;4993803;28;20393;-47
2022/01/25 00:45:48;;;;;;;;;;;;;;;;;;4993424;28;19918;-51
2022/01/25 00:48:19;;;;;;;;;;;;;;;;;;4993808;28;19913;-48
2022/01/25 00:50:45;;;;;;;;;;;;;;;;;;4993132;28;20500;-48
2022/01/25 00:55:54;;;;;;;;;;;;;;;;;;4993967;28;19924;-49
2022/01/25 00:58:19;;;;;;;;;;;;;;;;;;4993895;28;19914;-46
2022/01/25 01:00:45;;;;;;;;;;;;;;;;;;4993950;28;20017;-44
2022/01/25 01:03:10;;;;;;;;;;;;;;;;;;4993028;28;19917;-46
2022/01/25 01:05:37;;;;;;;;;;;;;;;;;;4993562;28;19960;-44
2022/01/25 01:08:03;;;;;;;;;;;;;;;;;;4993476;28;19914;-47
2022/01/25 01:10:28;;;;;;;;;;;;;;;;;;4993426;28;19910;-50
2022/01/25 01:15:53;;;;;;;;;;;;;;;;;;4991555;28;19960;-46
2022/01/25 01:29:25;;;;;;;;;;;;;;;;;;4991759;28;19929;-49
2022/01/25 01:32:02;;;;;;;;;;;;;;;;;;4991581;28;19949;-45
2022/01/25 01:45:11;;;;;;;;;;;;;;;;;;4991592;28;19915;-49
2022/01/25 01:47:50;;;;;;;;;;;;;;;;;;4991727;28;19909;-47
2022/01/25 01:50:27;;;;;;;;;;;;;;;;;;4991410;28;19920;-48
2022/01/25 01:52:53;;;;;;;;;;;;;;;;;;4991114;28;19960;-47
2022/01/25 01:55:18;;;;;;;;;;;;;;;;;;4991690;28;20004;-45
2022/01/25 01:57:46;;;;;;;;;;;;;;;;;;4991726;28;20373;-44
2022/01/25 02:00:12;;;;;;;;;;;;;;;;;;4992458;28;19914;-45
2022/01/25 02:02:37;;;;;;;;;;;;;;;;;;4992476;28;20324;-43
2022/01/25 02:05:03;;;;;;;;;;;;;;;;;;4992391;28;19932;-47
2022/01/25 02:07:28;;;;;;;;;;;;;;;;;;4993060;28;19914;-40
2022/01/25 02:09:54;;;;;;;;;;;;;;;;;;4992931;28;20025;-40
2022/01/25 02:12:19;;;;;;;;;;;;;;;;;;4991858;28;19913;-45
2022/01/25 02:14:47;;;;;;;;;;;;;;;;;;4992856;28;19918;-40
2022/01/25 02:23:18;;;;;;;;;;;;;;;;;;4989162;28;20029;-50
2022/01/25 02:25:44;;;;;;;;;;;;;;;;;;4991588;28;20393;-48
2022/01/25 02:28:09;;;;;;;;;;;;;;;;;;4996168;28;20071;-47
2022/01/25 02:30:35;;;;;;;;;;;;;;;;;;4996567;28;19973;-45
2022/01/25 02:33:00;;;;;;;;;;;;;;;;;;4996222;28;19914;-48
2022/01/25 02:35:25;;;;;;;;;;;;;;;;;;4996244;28;20044;-48
2022/01/25 02:37:51;;;;;;;;;;;;;;;;;;4996363;28;19968;-52
2022/01/25 02:40:16;;;;;;;;;;;;;;;;;;4996423;28;19913;-48
2022/01/25 02:42:41;;;;;;;;;;;;;;;;;;4996375;28;20361;-48
2022/01/25 02:45:11;;;;;;;;;;;;;;;;;;4996329;28;20301;-47
2022/01/25 02:50:20;;;;;;;;;;;;;;;;;;4996375;28;19921;-48
2022/01/25 02:52:46;;;;;;;;;;;;;;;;;;4995836;28;19914;-51
2022/01/25 02:55:11;;;;;;;;;;;;;;;;;;4995841;28;19914;-48
2022/01/25 02:57:37;;;;;;;;;;;;;;;;;;4996162;28;19914;-49
2022/01/25 03:00:07;;;;;;;;;;;;;;;;;;4995674;28;19914;-49
2022/01/25 03:02:32;;;;;;;;;;;;;;;;;;4996022;28;19921;-52
2022/01/25 03:04:57;;;;;;;;;;;;;;;;;;4995554;28;20353;-51
2022/01/25 03:07:23;;;;;;;;;;;;;;;;;;4995607;28;19926;-48
2022/01/25 03:09:51;;;;;;;;;;;;;;;;;;4995547;28;19918;-48
2022/01/25 03:12:19;;;;;;;;;;;;;;;;;;4995749;28;20284;-49
2022/01/25 03:15:10;;;;;;;;;;;;;;;;;;4995768;28;19922;-49
2022/01/25 03:17:32;;;;;;;;;;;;;;;;;;4995369;28;19921;-48
2022/01/25 03:20:05;;;;;;;;;;;;;;;;;;4995722;28;19914;-47
2022/01/25 03:25:14;;;;;;;;;;;;;;;;;;4995613;28;19921;-48
2022/01/25 03:27:39;;;;;;;;;;;;;;;;;;4995224;28;19914;-48
2022/01/25 03:30:05;;;;;;;;;;;;;;;;;;4995427;28;19914;-48
2022/01/25 03:32:30;;;;;;;;;;;;;;;;;;4994970;28;19940;-51
2022/01/25 03:34:55;;;;;;;;;;;;;;;;;;4995157;28;19920;-52
2022/01/25 03:37:21;;;;;;;;;;;;;;;;;;4994583;28;20023;-53
2022/01/25 03:39:46;;;;;;;;;;;;;;;;;;4995027;28;19914;-49
2022/01/25 03:42:14;;;;;;;;;;;;;;;;;;4994890;28;19914;-50
2022/01/25 03:44:41;;;;;;;;;;;;;;;;;;4994837;28;20393;-50
2022/01/25 03:47:10;;;;;;;;;;;;;;;;;;4995205;28;19914;-52
2022/01/25 03:49:52;;;;;;;;;;;;;;;;;;4995053;28;20281;-51
2022/01/25 03:52:22;;;;;;;;;;;;;;;;;;4994779;28;19918;-51
2022/01/25 03:54:48;;;;;;;;;;;;;;;;;;4994698;28;20476;-44
2022/01/25 03:57:15;;;;;;;;;;;;;;;;;;4994978;28;19920;-45
2022/01/25 03:59:40;;;;;;;;;;;;;;;;;;4994903;28;20330;-43
2022/01/25 04:02:05;;;;;;;;;;;;;;;;;;4994601;28;20002;-45
2022/01/25 04:04:31;;;;;;;;;;;;;;;;;;4994476;28;19921;-43
2022/01/25 04:06:57;;;;;;;;;;;;;;;;;;4994710;28;19914;-42
2022/01/25 04:09:22;;;;;;;;;;;;;;;;;;4994744;28;19997;-42
2022/01/25 04:11:48;;;;;;;;;;;;;;;;;;4994366;28;20326;-42
2022/01/25 04:14:13;;;;;;;;;;;;;;;;;;4994618;28;19920;-43
2022/01/25 04:16:50;;;;;;;;;;;;;;;;;;4994855;28;20424;-43
2022/01/25 04:19:29;;;;;;;;;;;;;;;;;;4994304;28;19914;-45
2022/01/25 04:24:44;;;;;;;;;;;;;;;;;;4994300;28;19913;-43
2022/01/25 04:27:10;;;;;;;;;;;;;;;;;;4994184;28;19945;-42
2022/01/25 04:29:35;;;;;;;;;;;;;;;;;;4994332;28;19952;-42
2022/01/25 04:32:00;;;;;;;;;;;;;;;;;;4994260;28;20615;-44
2022/01/25 04:53:10;;;;;;;;;;;;;;;;;;4993975;28;20270;-45
2022/01/25 04:55:50;;;;;;;;;;;;;;;;;;4993742;28;19913;-44
2022/01/25 04:58:34;;;;;;;;;;;;;;;;;;4993943;28;20309;-44
2022/01/25 05:00:59;;;;;;;;;;;;;;;;;;4993533;28;19914;-43
2022/01/25 05:03:32;;;;;;;;;;;;;;;;;;4993239;28;19922;-42
2022/01/25 05:06:10;;;;;;;;;;;;;;;;;;4993555;28;20277;-44
2022/01/25 05:08:50;;;;;;;;;;;;;;;;;;4993503;28;19952;-43
2022/01/25 05:11:26;;;;;;;;;;;;;;;;;;4993780;28;19913;-42
2022/01/25 05:16:35;;;;;;;;;;;;;;;;;;4993477;28;20320;-43
2022/01/25 05:19:19;;;;;;;;;;;;;;;;;;4993419;28;19968;-46
2022/01/25 05:22:05;;;;;;;;;;;;;;;;;;4993322;28;19932;-44
2022/01/25 05:24:34;;;;;;;;;;;;;;;;;;4993723;28;19914;-42
2022/01/25 05:27:00;;;;;;;;;;;;;;;;;;4993529;28;19913;-42
2022/01/25 05:29:25;;;;;;;;;;;;;;;;;;4993575;28;20302;-42
2022/01/25 05:31:51;;;;;;;;;;;;;;;;;;4993181;28;20031;-44
2022/01/25 05:34:16;;;;;;;;;;;;;;;;;;4993536;28;19920;-42
2022/01/25 05:36:43;;;;;;;;;;;;;;;;;;4993228;28;20291;-45
2022/01/25 05:39:12;;;;;;;;;;;;;;;;;;4993547;28;19967;-46
2022/01/25 05:41:39;;;;;;;;;;;;;;;;;;4993480;28;20266;-44
2022/01/25 05:44:24;;;;;;;;;;;;;;;;;;4993467;28;19933;-42
2022/01/25 05:49:23;;;;;;;;;;;;;;;;;;4993317;28;19914;-44
2022/01/25 05:51:49;;;;;;;;;;;;;;;;;;4993244;28;19914;-44
2022/01/25 05:54:15;;;;;;;;;;;;;;;;;;4993213;28;19925;-45
2022/01/25 05:56:40;;;;;;;;;;;;;;;;;;4993232;28;20016;-46
2022/01/25 05:59:06;;;;;;;;;;;;;;;;;;4993592;28;19996;-43
2022/01/25 06:01:32;;;;;;;;;;;;;;;;;;4995247;28;19920;-43
2022/01/25 06:03:57;;;;;;;;;;;;;;;;;;4996483;28;20353;-49
2022/01/25 06:06:23;;;;;;;;;;;;;;;;;;4997013;28;19914;-48
2022/01/25 06:08:48;;;;;;;;;;;;;;;;;;4996624;28;20366;-48
2022/01/25 06:11:14;;;;;;;;;;;;;;;;;;4996491;28;19932;-48
2022/01/25 06:13:39;;;;;;;;;;;;;;;;;;4996617;28;19921;-49
2022/01/25 06:16:05;;;;;;;;;;;;;;;;;;4996551;28;19918;-40
2022/01/25 06:18:30;;;;;;;;;;;;;;;;;;4996720;28;19909;-52
2022/01/25 06:20:55;;;;;;;;;;;;;;;;;;4996669;28;20511;-50
2022/01/25 06:23:21;;;;;;;;;;;;;;;;;;4996345;28;19931;-52
2022/01/25 06:25:46;;;;;;;;;;;;;;;;;;4996576;28;19941;-48
2022/01/25 06:28:13;;;;;;;;;;;;;;;;;;4996615;28;20372;-48
2022/01/25 06:30:39;;;;;;;;;;;;;;;;;;4995593;28;20021;-51
2022/01/25 06:33:07;;;;;;;;;;;;;;;;;;4996074;28;19997;-52
2022/01/25 06:35:32;;;;;;;;;;;;;;;;;;4994976;28;19984;-48
2022/01/25 06:37:57;;;;;;;;;;;;;;;;;;4996356;28;19914;-52
2022/01/25 06:40:26;;;;;;;;;;;;;;;;;;4996008;28;20012;-50
2022/01/25 06:42:51;;;;;;;;;;;;;;;;;;4996293;28;19913;-52
2022/01/25 06:45:19;;;;;;;;;;;;;;;;;;4996026;28;19913;-49
2022/01/25 06:47:45;;;;;;;;;;;;;;;;;;4995925;28;19924;-50
2022/01/25 06:50:11;;;;;;;;;;;;;;;;;;4995794;28;19956;-49
2022/01/25 06:52:39;;;;;;;;;;;;;;;;;;4995776;28;19914;-47
2022/01/25 06:55:09;;;;;;;;;;;;;;;;;;4995460;28;19913;-44
2022/01/25 06:57:34;;;;;;;;;;;;;;;;;;4995529;28;20386;-45
2022/01/25 07:00:00;;;;;;;;;;;;;;;;;;4994165;28;19914;-47
2022/01/25 07:02:25;;;;;;;;;;;;;;;;;;4992817;28;19925;-45
2022/01/25 07:04:50;;;;;;;;;;;;;;;;;;4995120;28;19968;-45
2022/01/25 07:07:16;;;;;;;;;;;;;;;;;;4995744;28;19936;-46
2022/01/25 07:09:41;;;;;;;;;;;;;;;;;;4995823;28;20270;-46
2022/01/25 07:12:07;;;;;;;;;;;;;;;;;;4994569;28;20365;-46
2022/01/25 07:14:32;;;;;;;;;;;;;;;;;;4995514;28;19921;-46
2022/01/25 07:16:57;;;;;;;;;;;;;;;;;;4995691;28;20000;-46
2022/01/25 07:19:24;;;;;;;;;;;;;;;;;;4995431;28;20385;-46
2022/01/25 07:21:49;;;;;;;;;;;;;;;;;;4995397;28;19913;-44
2022/01/25 07:24:15;;;;;;;;;;;;;;;;;;4995288;28;19921;-46
2022/01/25 07:26:40;;;;;;;;;;;;;;;;;;4995542;28;20429;-46
2022/01/25 07:29:06;;;;;;;;;;;;;;;;;;4995349;28;19964;-47
2022/01/25 07:31:32;;;;;;;;;;;;;;;;;;4995123;28;19953;-50
2022/01/25 07:33:57;;;;;;;;;;;;;;;;;;4995165;28;19917;-47
2022/01/25 07:36:22;;;;;;;;;;;;;;;;;;4995305;28;19913;-47
2022/01/25 07:38:48;;;;;;;;;;;;;;;;;;4995202;28;19989;-47
2022/01/25 07:41:13;;;;;;;;;;;;;;;;;;4995303;28;20025;-47
2022/01/25 07:43:39;;;;;;;;;;;;;;;;;;4995219;28;20428;-49
2022/01/25 07:46:04;;;;;;;;;;;;;;;;;;4995234;28;20373;-47
2022/01/25 07:48:30;;;;;;;;;;;;;;;;;;4994825;28;19965;-48
2022/01/25 07:50:56;;;;;;;;;;;;;;;;;;4994910;28;19941;-47
2022/01/25 07:53:21;;;;;;;;;;;;;;;;;;4995128;28;19921;-47
2022/01/25 07:55:46;;;;;;;;;;;;;;;;;;4995071;28;19922;-47
2022/01/25 07:58:12;;;;;;;;;;;;;;;;;;4994743;28;19914;-47
2022/01/25 08:00:37;;;;;;;;;;;;;;;;;;4994935;28;19914;-47
2022/01/25 08:03:03;;;;;;;;;;;;;;;;;;4993908;28;19996;-48
2022/01/25 08:05:28;;;;;;;;;;;;;;;;;;4994765;28;19920;-48
2022/01/25 08:07:53;;;;;;;;;;;;;;;;;;4993251;28;19914;-48
2022/01/25 08:10:20;;;;;;;;;;;;;;;;;;4994305;28;20297;-50
2022/01/25 08:12:45;;;;;;;;;;;;;;;;;;4994155;28;19918;-48
2022/01/25 08:15:12;;;;;;;;;;;;;;;;;;4994634;28;19920;-48
2022/01/25 08:17:37;;;;;;;;;;;;;;;;;;4994140;28;19910;-49
2022/01/25 08:20:03;;;;;;;;;;;;;;;;;;4994481;28;19920;-53
2022/01/25 08:22:28;;;;;;;;;;;;;;;;;;4994477;28;19938;-51
2022/01/25 08:24:54;;;;;;;;;;;;;;;;;;4994290;28;20000;-49
2022/01/25 08:27:20;;;;;;;;;;;;;;;;;;4994449;28;19914;-47
2022/01/25 08:29:49;;;;;;;;;;;;;;;;;;4991781;28;20368;-48
2022/01/25 08:32:15;;;;;;;;;;;;;;;;;;4993849;28;19924;-48
2022/01/25 08:34:40;;;;;;;;;;;;;;;;;;4994231;28;19913;-50
2022/01/25 08:37:05;;;;;;;;;;;;;;;;;;4993852;28;19914;-48
2022/01/25 08:39:31;;;;;;;;;;;;;;;;;;4993804;28;19925;-45
2022/01/25 08:41:56;;;;;;;;;;;;;;;;;;4993931;28;19948;-50
2022/01/25 08:44:22;;;;;;;;;;;;;;;;;;4993482;28;19923;-49
2022/01/25 08:46:47;;;;;;;;;;;;;;;;;;4993750;28;19914;-50
2022/01/25 08:49:12;;;;;;;;;;;;;;;;;;4993547;28;19920;-52
2022/01/25 08:51:38;;;;;;;;;;;;;;;;;;4993369;28;19913;-48
2022/01/25 08:54:05;;;;;;;;;;;;;;;;;;4993764;28;20305;-49
2022/01/25 08:56:30;;;;;;;;;;;;;;;;;;4996429;28;19917;-48
2022/01/25 08:58:56;;;;;;;;;;;;;;;;;;4992891;28;19968;-47
2022/01/25 09:01:21;;;;;;;;;;;;;;;;;;4993670;28;19964;-52
2022/01/25 09:03:46;;;;;;;;;;;;;;;;;;4993154;28;19918;-52
2022/01/25 09:06:12;;;;;;;;;;;;;;;;;;5003156;28;20316;-52
2022/01/25 09:08:37;;;;;;;;;;;;;;;;;;5011227;28;19952;-50
2022/01/25 09:11:05;;;;;;;;;;;;;;;;;;5011404;28;19918;-52
2022/01/25 09:13:30;;;;;;;;;;;;;;;;;;5011406;28;19959;-51
2022/01/25 09:15:56;;;;;;;;;;;;;;;;;;5011383;28;19940;-48
2022/01/25 09:18:22;;;;;;;;;;;;;;;;;;5011461;28;19949;-50
2022/01/25 09:20:47;;;;;;;;;;;;;;;;;;5011640;28;20280;-51
2022/01/25 09:23:16;;;;;;;;;;;;;;;;;;5011586;28;19909;-49
2022/01/25 09:25:41;;;;;;;;;;;;;;;;;;5011716;28;19996;-47
2022/01/25 09:28:06;;;;;;;;;;;;;;;;;;5011516;28;20325;-48
2022/01/25 09:30:32;;;;;;;;;;;;;;;;;;5011338;28;20377;-52
2022/01/25 09:32:57;;;;;;;;;;;;;;;;;;5011274;28;19923;-47
2022/01/25 09:35:23;;;;;;;;;;;;;;;;;;5012094;28;19960;-52
2022/01/25 09:37:49;;;;;;;;;;;;;;;;;;5015140;28;20203;-47
2022/01/25 09:40:15;;;;;;;;;;;;;;;;;;5015067;28;19924;-48
2022/01/25 09:42:40;;;;;;;;;;;;;;;;;;5014940;28;19936;-48
2022/01/25 09:45:06;;;;;;;;;;;;;;;;;;5015365;28;19918;-47
2022/01/25 09:47:32;;;;;;;;;;;;;;;;;;5015209;28;20008;-47
2022/01/25 09:49:57;;;;;;;;;;;;;;;;;;5014750;28;20056;-47
2022/01/25 09:52:23;;;;;;;;;;;;;;;;;;5014861;28;19917;-48
2022/01/25 09:54:55;;;;;;;;;;;;;;;;;;5015032;28;19920;-47
2022/01/25 09:57:21;;;;;;;;;;;;;;;;;;5015130;28;20277;-47
2022/01/25 09:59:47;;;;;;;;;;;;;;;;;;5015141;28;19913;-46
2022/01/25 10:02:32;;;;;;;;;;;;;;;;;;5015097;28;20325;-46
2022/01/25 10:04:57;;;;;;;;;;;;;;;;;;5014652;28;19922;-47
2022/01/25 10:07:29;;;;;;;;;;;;;;;;;;5014646;28;19920;-46
2022/01/25 10:09:54;;;;;;;;;;;;;;;;;;5014529;28;20345;-48
2022/01/25 10:12:22;;;;;;;;;;;;;;;;;;5014560;28;19925;-49
2022/01/25 10:15:00;;;;;;;;;;;;;;;;;;5014426;28;19940;-47
2022/01/25 10:17:32;;;;;;;;;;;;;;;;;;5013996;28;20042;-49
2022/01/25 10:19:57;;;;;;;;;;;;;;;;;;5014486;28;19917;-48
2022/01/25 10:22:23;;;;;;;;;;;;;;;;;;5014286;28;19913;-47
2022/01/25 10:24:48;;;;;;;;;;;;;;;;;;5014453;28;20377;-47
2022/01/25 10:27:14;;;;;;;;;;;;;;;;;;5014291;28;20009;-47
2022/01/25 10:29:40;;;;;;;;;;;;;;;;;;5014653;28;20369;-48
2022/01/25 10:32:16;;;;;;;;;;;;;;;;;;5013605;28;19914;-46
2022/01/25 10:34:45;;;;;;;;;;;;;;;;;;5002712;28;19921;-49
2022/01/25 10:37:15;;;;;;;;;;;;;;;;;;5011393;28;20403;-48
2022/01/25 10:39:42;;;;;;;;;;;;;;;;;;5010061;28;20655;-48
2022/01/25 10:42:09;;;;;;;;;;;;;;;;;;5002063;28;19986;-46
2022/01/25 10:44:48;;;;;;;;;;;;;;;;;;4994565;28;19924;-46
2022/01/25 10:47:14;;;;;;;;;;;;;;;;;;4995811;28;20293;-46
2022/01/25 10:49:43;;;;;;;;;;;;;;;;;;5013805;28;19913;-47
2022/01/25 10:52:08;;;;;;;;;;;;;;;;;;5013829;28;19914;-47
2022/01/25 10:54:38;;;;;;;;;;;;;;;;;;5014048;28;19972;-46
2022/01/25 10:57:03;;;;;;;;;;;;;;;;;;5004877;28;20364;-46
2022/01/25 10:59:32;;;;;;;;;;;;;;;;;;4994288;28;19949;-46
2022/01/25 11:02:01;;;;;;;;;;;;;;;;;;4994057;28;20292;-46
2022/01/25 11:04:32;;;;;;;;;;;;;;;;;;4993963;28;19976;-46
2022/01/25 11:06:58;;;;;;;;;;;;;;;;;;4993883;28;19925;-49
2022/01/25 11:09:24;;;;;;;;;;;;;;;;;;4994089;28;19914;-46
2022/01/25 11:11:54;;;;;;;;;;;;;;;;;;4993808;28;19917;-46
2022/01/25 11:17:03;;;;;;;;;;;;;;;;;;4994045;28;19978;-47
2022/01/25 11:19:29;;;;;;;;;;;;;;;;;;4993887;28;20361;-46
2022/01/25 11:21:55;;;;;;;;;;;;;;;;;;5006853;28;19960;-46
2022/01/25 11:24:21;;;;;;;;;;;;;;;;;;5013379;28;20373;-47
2022/01/25 11:26:48;;;;;;;;;;;;;;;;;;5013351;28;19933;-46
2022/01/25 11:29:13;;;;;;;;;;;;;;;;;;5013000;28;19917;-47
2022/01/25 11:31:40;;;;;;;;;;;;;;;;;;5012937;28;19963;-49
2022/01/25 11:34:08;;;;;;;;;;;;;;;;;;5009969;28;19972;-47
2022/01/25 11:36:54;;;;;;;;;;;;;;;;;;5001530;28;20318;-47
2022/01/25 11:39:21;;;;;;;;;;;;;;;;;;5007601;28;19914;-49
2022/01/25 11:41:46;;;;;;;;;;;;;;;;;;5010047;28;19948;-46
2022/01/25 11:44:21;;;;;;;;;;;;;;;;;;5012658;28;20393;-48
2022/01/25 11:46:49;;;;;;;;;;;;;;;;;;5012445;28;20446;-47
2022/01/25 11:49:17;;;;;;;;;;;;;;;;;;5012830;28;19928;-49
2022/01/25 11:51:43;;;;;;;;;;;;;;;;;;5012876;28;19940;-46
2022/01/25 11:54:09;;;;;;;;;;;;;;;;;;5012727;28;19913;-47
2022/01/25 11:56:38;;;;;;;;;;;;;;;;;;5012914;28;19917;-47
2022/01/25 11:59:05;;;;;;;;;;;;;;;;;;5009314;28;19979;-47
2022/01/25 12:01:32;;;;;;;;;;;;;;;;;;5012566;28;19917;-49
2022/01/25 12:04:02;;;;;;;;;;;;;;;;;;5012612;28;20347;-47
2022/01/25 12:06:38;;;;;;;;;;;;;;;;;;5012793;28;19921;-48
2022/01/25 12:09:13;;;;;;;;;;;;;;;;;;5012566;28;19989;-50
2022/01/25 12:11:45;;;;;;;;;;;;;;;;;;5012322;28;19921;-49
2022/01/25 12:14:10;;;;;;;;;;;;;;;;;;5006883;28;20681;-49
2022/01/25 12:16:44;;;;;;;;;;;;;;;;;;5011915;28;19909;-51
2022/01/25 12:19:10;;;;;;;;;;;;;;;;;;5010218;28;20391;-52
2022/01/25 12:21:49;;;;;;;;;;;;;;;;;;5003276;28;20025;-50
2022/01/25 12:24:15;;;;;;;;;;;;;;;;;;5012237;28;20371;-53
2022/01/25 12:27:07;;;;;;;;;;;;;;;;;;5012152;28;19917;-51
2022/01/25 12:29:34;;;;;;;;;;;;;;;;;;5012345;28;19956;-51
2022/01/25 12:32:18;;;;;;;;;;;;;;;;;;5012285;28;20020;-49
2022/01/25 12:35:02;;;;;;;;;;;;;;;;;;5011697;28;19914;-48
2022/01/25 12:37:43;;;;;;;;;;;;;;;;;;5012205;28;19917;-49
2022/01/25 12:40:20;;;;;;;;;;;;;;;;;;5011986;28;19921;-50
2022/01/25 12:42:46;;;;;;;;;;;;;;;;;;5012090;28;19918;-50
2022/01/25 12:45:16;;;;;;;;;;;;;;;;;;5011935;28;19913;-49
2022/01/25 12:47:50;;;;;;;;;;;;;;;;;;5011975;28;19917;-50
2022/01/25 12:50:15;;;;;;;;;;;;;;;;;;5011836;28;20064;-50
2022/01/25 12:52:40;;;;;;;;;;;;;;;;;;5011890;28;20016;-49
2022/01/25 12:55:06;;;;;;;;;;;;;;;;;;5011553;28;19917;-50
2022/01/25 12:57:32;;;;;;;;;;;;;;;;;;5011709;28;19917;-52
2022/01/25 12:59:58;;;;;;;;;;;;;;;;;;5011878;28;19928;-48
2022/01/25 13:02:25;;;;;;;;;;;;;;;;;;5011724;28;19914;-49
2022/01/25 13:04:51;;;;;;;;;;;;;;;;;;5011199;28;19992;-48
2022/01/25 13:07:16;;;;;;;;;;;;;;;;;;5002854;28;20473;-48
2022/01/25 13:09:45;;;;;;;;;;;;;;;;;;5000108;28;19976;-48
2022/01/25 13:12:15;;;;;;;;;;;;;;;;;;5001295;28;20004;-49
2022/01/25 13:14:51;;;;;;;;;;;;;;;;;;5003161;28;20016;-48
2022/01/25 13:17:18;;;;;;;;;;;;;;;;;;5008032;28;19922;-50
2022/01/25 13:19:54;;;;;;;;;;;;;;;;;;5011404;28;20416;-49
2022/01/25 13:22:26;;;;;;;;;;;;;;;;;;5011653;28;20008;-49
2022/01/25 13:25:11;;;;;;;;;;;;;;;;;;5000046;28;20282;-47
2022/01/25 13:27:47;;;;;;;;;;;;;;;;;;5007274;28;19968;-46
2022/01/25 13:32:59;;;;;;;;;;;;;;;;;;5011715;28;19921;-50
2022/01/25 13:35:28;;;;;;;;;;;;;;;;;;5011289;28;19920;-49
2022/01/25 13:38:11;;;;;;;;;;;;;;;;;;5011193;28;19913;-48
2022/01/25 13:41:01;;;;;;;;;;;;;;;;;;5010904;28;20292;-49
2022/01/25 13:46:06;;;;;;;;;;;;;;;;;;5010885;28;19918;-48
2022/01/25 13:48:32;;;;;;;;;;;;;;;;;;4991693;28;19925;-49
2022/01/25 13:50:59;;;;;;;;;;;;;;;;;;4991789;28;19914;-52
2022/01/25 13:53:25;;;;;;;;;;;;;;;;;;4991325;28;19920;-49
2022/01/25 13:55:52;;;;;;;;;;;;;;;;;;4991491;28;20367;-47
2022/01/25 13:58:19;;;;;;;;;;;;;;;;;;4991619;28;20276;-48
2022/01/25 14:00:44;;;;;;;;;;;;;;;;;;4991765;28;19914;-48
2022/01/25 14:03:09;;;;;;;;;;;;;;;;;;4991624;28;19914;-48
2022/01/25 14:05:36;;;;;;;;;;;;;;;;;;4990136;28;20424;-48
2022/01/25 14:08:02;;;;;;;;;;;;;;;;;;4991767;28;19913;-48
2022/01/25 14:10:28;;;;;;;;;;;;;;;;;;4991307;28;19972;-47
2022/01/25 14:23:53;;;;;;;;;;;;;;;;;;4994700;28;20392;-48
2022/01/25 14:26:19;;;;;;;;;;;;;;;;;;5013002;28;19914;-48
2022/01/25 14:28:53;;;;;;;;;;;;;;;;;;5014483;28;19923;-47
2022/01/25 14:31:23;;;;;;;;;;;;;;;;;;5014238;28;20440;-46
2022/01/25 14:34:02;;;;;;;;;;;;;;;;;;5014413;28;19917;-49
2022/01/25 14:36:29;;;;;;;;;;;;;;;;;;5004968;28;19921;-46
2022/01/25 14:38:54;;;;;;;;;;;;;;;;;;5003933;28;20396;-49
2022/01/25 14:41:23;;;;;;;;;;;;;;;;;;5002997;28;19913;-47
2022/01/25 14:44:24;;;;;;;;;;;;;;;;;;4997067;28;19918;-48
2022/01/25 14:46:52;;;;;;;;;;;;;;;;;;4972523;28;19917;-51
2022/01/25 14:49:24;;;;;;;;;;;;;;;;;;5004542;28;20376;-50
2022/01/25 14:52:00;;;;;;;;;;;;;;;;;;5004217;28;19960;-48
2022/01/25 14:54:28;;;;;;;;;;;;;;;;;;5006320;28;19933;-48
2022/01/25 14:56:56;;;;;;;;;;;;;;;;;;5013973;28;19959;-49
2022/01/25 14:59:26;;;;;;;;;;;;;;;;;;5013194;28;20004;-47
2022/01/25 15:02:09;;;;;;;;;;;;;;;;;;5028936;28;20369;-49
2022/01/25 15:04:38;;;;;;;;;;;;;;;;;;5013280;28;19928;-52
2022/01/25 15:07:08;;;;;;;;;;;;;;;;;;5013490;28;19920;-52
2022/01/25 15:09:33;;;;;;;;;;;;;;;;;;5013547;28;19913;-50
2022/01/25 15:11:59;;;;;;;;;;;;;;;;;;5013521;28;19949;-54
2022/01/25 15:14:34;;;;;;;;;;;;;;;;;;5013759;28;20030;-50
2022/01/25 15:17:00;;;;;;;;;;;;;;;;;;5013899;28;19913;-51
2022/01/25 15:19:25;;;;;;;;;;;;;;;;;;5013400;28;19924;-51
2022/01/25 15:21:51;;;;;;;;;;;;;;;;;;5013312;28;19917;-47
2022/01/25 15:24:17;;;;;;;;;;;;;;;;;;5013291;28;20008;-46
2022/01/25 15:26:46;;;;;;;;;;;;;;;;;;4998909;28;19918;-45
2022/01/25 15:29:16;;;;;;;;;;;;;;;;;;4993992;28;19924;-48
2022/01/25 15:31:42;;;;;;;;;;;;;;;;;;4993721;28;20015;-46
2022/01/25 15:34:09;;;;;;;;;;;;;;;;;;4992707;28;19968;-45
2022/01/25 15:36:34;;;;;;;;;;;;;;;;;;4993406;28;19917;-44
2022/01/25 15:38:59;;;;;;;;;;;;;;;;;;4993869;28;19909;-44
2022/01/25 15:41:25;;;;;;;;;;;;;;;;;;4993431;28;20433;-45
2022/01/25 15:43:53;;;;;;;;;;;;;;;;;;4993233;28;19959;-45
2022/01/25 15:46:24;;;;;;;;;;;;;;;;;;4992977;28;19914;-46
2022/01/25 15:48:50;;;;;;;;;;;;;;;;;;4993715;28;19945;-46
2022/01/25 15:51:15;;;;;;;;;;;;;;;;;;4993229;28;20400;-45
2022/01/25 15:53:41;;;;;;;;;;;;;;;;;;4992933;28;19913;-47
2022/01/25 15:56:06;;;;;;;;;;;;;;;;;;4994277;28;19914;-46
2022/01/25 15:58:33;;;;;;;;;;;;;;;;;;4994703;28;19961;-46
2022/01/25 16:00:58;;;;;;;;;;;;;;;;;;4994501;28;20484;-48
2022/01/25 16:09:22;;;;;;;23.45;10.90;;;;;;;;;;5069048;28;20959;-50
2022/01/25 16:11:48;;;;;;;24.05;12.25;;;;;;;;;;5068853;28;20087;-49
2022/01/25 16:14:15;;;;;;;25.60;13.70;;;;;;;;;;5067137;28;20585;-49
2022/01/25 16:16:46;;;;;;;26.75;12.35;;;;;;;;;;5069594;28;20024;-49
2022/01/25 16:19:13;;;;;;;25.95;13.50;;;;;;;;;;5068059;28;20597;-50
2022/01/25 16:21:39;;;;;;;29.10;15.27;;;;;;;;;;5049551;28;20104;-48
2022/01/25 16:24:05;;;;;;;32.25;16.13;;;;;;;;;;5049471;28;20445;-50
2022/01/25 16:26:34;;;;;;;26.05;13.18;;;;;;;;;;5049517;28;20102;-50
2022/01/25 16:29:00;;;;;;;27.52;15.55;;;;;;;;;;5049349;28;20470;-49
2022/01/25 16:31:31;;;;;;;32.67;15.93;;;;;;;;;;5049592;28;20036;-49
2022/01/25 16:33:58;;;;;;;30.15;15.20;;;;;;;;;;5049688;28;20028;-50
2022/01/25 16:36:24;;;;;;;30.50;16.52;;;;;;;;;;5049292;28;20052;-51
2022/01/25 16:38:51;;;;;;;31.80;16.35;;;;;;;;;;5049088;28;20066;-50
2022/01/25 16:41:17;;;;;;;34.65;17.90;;;;;;;;;;5048901;28;20112;-51
2022/01/25 16:43:44;;;;;;;38.92;17.88;;;;;;;;;;5049037;28;20113;-48
2022/01/25 16:46:11;;;;;;;33.88;18.48;;;;;;;;;;5048895;28;20079;-51
2022/01/25 16:48:37;;;;;;;35.80;18.90;;;;;;;;;;5049179;28;20064;-49
2022/01/25 16:51:04;;;;;;;32.58;17.80;;;;;;;;;;5049169;28;20025;-50
2022/01/25 16:53:31;;;;;;;37.17;18.73;;;;;;;;;;5049150;28;20354;-49
2022/01/25 16:55:57;;;;;;;35.63;18.65;;;;;;;;;;5047850;28;20514;-49
2022/01/25 16:58:24;;;;;;;38.20;17.55;;;;;;;;;;5048715;28;20164;-47
2022/01/25 17:00:51;;;;;;;40.10;19.00;;;;;;;;;;5048690;28;20021;-48
2022/01/25 17:03:17;;;;;;;36.50;17.85;;;;;;;;;;5049859;28;20028;-50
2022/01/25 17:05:43;;;;;;;37.72;17.27;;;;;;;;;;5068170;28;20028;-49
2022/01/25 17:08:10;;;;;;;36.13;17.45;;;;;;;;;;5065303;28;20068;-48
2022/01/25 17:10:36;;;;;;;35.55;16.50;;;;;;;;;;5068112;28;20025;-51
2022/01/25 17:13:02;;;;;;;35.42;18.25;;;;;;;;;;5295061;22;20050;-43
2022/01/25 17:15:28;;;;;;;37.67;17.13;;;;;;;;;;5019885;28;20025;-44
2022/01/25 17:17:56;;;;;;;37.42;17.73;;;;;;;;;;5011773;28;20397;-41
2022/01/25 17:20:22;;;;;;;34.08;17.10;;;;;;;;;;4996313;28;20056;-43
2022/01/25 17:22:48;;;;;;;40.40;18.50;;;;;;;;;;4994587;28;20045;-42
2022/01/25 17:25:14;;;;;;;38.72;18.85;;;;;;;;;;4993750;28;20026;-41
2022/01/25 17:27:39;;;;;;;39.78;18.30;;;;;;;;;;4994534;28;20037;-45
2022/01/25 17:30:07;;;;;;;35.28;17.38;;;;;;;;;;4994231;28;20113;-47
2022/01/25 17:32:33;;;;;;;37.10;18.83;;;;;;;;;;4994180;28;20113;-46
2022/01/25 17:34:59;;;;;;;37.30;17.35;;;;;;;;;;4994255;28;20035;-46
2022/01/25 17:37:24;;;;;;;37.00;16.80;;;;;;;;;;4995809;28;20030;-43
2022/01/25 17:39:50;;;;;;;40.60;18.20;;;;;;;;;;4995563;28;20030;-46
2022/01/25 17:42:15;;;;;;;29.15;14.27;;;;;;;;;;4995525;28;20106;-43
2022/01/25 17:44:41;;;;;;;21.65;11.95;;;;;;;;;;4995283;28;20057;-43
2022/01/25 17:47:07;;;;;;;44.00;16.92;;;;;;;;;;4995278;28;20034;-46
2022/01/25 17:49:33;;;;;;;36.35;18.20;;;;;;;;;;4995468;28;20535;-41
2022/01/25 17:51:59;;;;;;;39.88;18.13;;;;;;;;;;4995613;28;20022;-44
2022/01/25 17:54:27;;;;;;;38.83;18.38;;;;;;;;;;4994359;28;20036;-40
2022/01/25 17:56:53;;;;;;;35.30;14.00;;;;;;;;;;4995572;28;20031;-40
2022/01/25 17:59:19;;;;;;;35.42;17.70;;;;;;;;;;4995070;28;20069;-40
2022/01/25 18:01:45;;;;;;;30.00;14.65;;;;;;;;;;4995140;28;20108;-40
2022/01/25 18:04:10;;;;;;;39.67;19.10;;;;;;;;;;4995439;28;20105;-40
2022/01/25 18:06:37;;;;;;;37.15;18.20;;;;;;;;;;4994929;28;20391;-42
2022/01/25 18:09:09;;;;;;;37.78;18.23;;;;;;;;;;4994954;28;20054;-42
2022/01/25 18:11:38;;;;;;;36.10;16.92;;;;;;;;;;4994896;28;20106;-40
2022/01/25 18:14:04;;;;;;;41.90;20.08;;;;;;;;;;4994511;28;20046;-48
2022/01/25 18:16:29;;;;;;;39.10;20.05;;;;;;;;;;4994965;28;20098;-39
2022/01/25 18:18:55;;;;;;;34.08;18.75;;;;;;;;;;4994753;28;20081;-41
2022/01/25 18:21:21;;;;;;;41.67;18.90;;;;;;;;;;4995056;28;20089;-44
2022/01/25 18:23:50;;;;;;;40.33;19.10;;;;;;;;;;4994361;28;20018;-41